createdAt,value
2017-10-31T00:01:09.904Z,9.70
2017-10-31T00:03:37.344Z,7.43
2017-10-31T00:06:04.765Z,6.68
2017-10-31T00:08:32.212Z,8.25
2017-10-31T00:10:59.627Z,12.70
2017-10-31T00:13:27.066Z,11.30
2017-10-31T00:15:54.483Z,7.85
2017-10-31T00:18:22.067Z,9.60
2017-10-31T00:20:49.459Z,11.57
2017-10-31T00:23:16.893Z,8.48
2017-10-31T00:25:44.324Z,13.75
2017-10-31T00:28:11.752Z,12.13
2017-10-31T00:30:39.316Z,9.75
2017-10-31T00:33:07.508Z,9.40
2017-10-31T00:35:34.941Z,11.30
2017-10-31T00:38:02.368Z,7.55
2017-10-31T00:40:29.783Z,7.03
2017-10-31T00:42:57.273Z,9.75
2017-10-31T00:45:24.700Z,10.20
2017-10-31T00:47:52.120Z,8.43
2017-10-31T00:50:20.313Z,8.75
2017-10-31T00:52:47.715Z,9.10
2017-10-31T00:55:15.144Z,9.40
2017-10-31T00:57:42.555Z,7.25
2017-10-31T01:00:10.752Z,9.73
2017-10-31T01:02:38.168Z,8.00
2017-10-31T01:05:05.695Z,7.45
2017-10-31T01:07:33.138Z,10.00
2017-10-31T01:10:00.548Z,10.00
2017-10-31T01:12:27.972Z,8.48
2017-10-31T01:14:55.409Z,9.82
2017-10-31T01:17:22.829Z,5.60
2017-10-31T01:19:51.027Z,6.28
2017-10-31T01:22:18.446Z,11.12
2017-10-31T01:24:45.884Z,7.07
2017-10-31T01:27:13.313Z,9.45
2017-10-31T01:29:40.732Z,7.82
2017-10-31T01:32:08.148Z,7.37
2017-10-31T01:34:35.577Z,7.85
2017-10-31T01:37:02.993Z,7.20
2017-10-31T01:39:30.467Z,9.23
2017-10-31T01:41:57.865Z,9.15
2017-10-31T01:44:25.287Z,8.82
2017-10-31T01:46:52.732Z,7.75
2017-10-31T01:49:20.143Z,7.70
2017-10-31T01:51:47.563Z,9.32
2017-10-31T01:54:14.985Z,8.73
2017-10-31T01:56:42.413Z,14.48
2017-10-31T01:59:09.836Z,11.38
2017-10-31T02:01:37.265Z,8.73
2017-10-31T02:04:04.680Z,10.23
2017-10-31T02:06:32.104Z,10.60
2017-10-31T02:08:59.531Z,16.70
2017-10-31T02:11:26.970Z,8.95
2017-10-31T02:13:54.367Z,7.62
2017-10-31T02:16:21.798Z,6.78
2017-10-31T02:18:49.212Z,7.35
2017-10-31T02:21:16.660Z,6.22
2017-10-31T02:23:44.077Z,8.18
2017-10-31T02:26:11.501Z,9.25
2017-10-31T02:28:38.929Z,8.73
2017-10-31T02:31:06.358Z,10.57
2017-10-31T02:33:33.808Z,8.68
2017-10-31T02:36:01.236Z,8.85
2017-10-31T02:51:57.989Z,6.75
2017-10-31T02:54:25.437Z,6.28
2017-10-31T02:56:52.855Z,9.02
2017-10-31T02:59:20.282Z,9.68
2017-10-31T03:01:47.704Z,16.23
2017-10-31T03:04:15.149Z,7.82
2017-10-31T03:06:42.565Z,9.88
2017-10-31T03:09:09.992Z,16.90
2017-10-31T03:11:37.404Z,8.60
2017-10-31T03:14:04.832Z,7.85
2017-10-31T03:16:32.248Z,9.40
2017-10-31T03:18:59.676Z,11.82
2017-10-31T03:21:27.093Z,5.68
2017-10-31T03:23:54.516Z,7.82
2017-10-31T03:26:21.933Z,8.63
2017-10-31T03:28:49.368Z,9.48
2017-10-31T03:31:16.794Z,8.75
2017-10-31T03:33:44.221Z,7.20
2017-10-31T03:36:11.642Z,6.80
2017-10-31T03:38:39.837Z,7.37
2017-10-31T03:41:07.272Z,10.02
2017-10-31T03:43:34.704Z,11.55
2017-10-31T03:46:02.125Z,7.25
2017-10-31T03:48:29.573Z,8.40
2017-10-31T03:50:57.150Z,11.68
2017-10-31T03:53:24.560Z,8.73
2017-10-31T03:55:51.984Z,6.00
2017-10-31T03:58:19.398Z,8.43
2017-10-31T04:00:46.825Z,8.30
2017-10-31T04:03:15.018Z,8.00
2017-10-31T04:05:42.437Z,6.72
2017-10-31T04:08:09.850Z,7.82
2017-10-31T04:10:37.299Z,8.48
2017-10-31T04:13:04.700Z,6.60
2017-10-31T04:15:32.124Z,6.12
2017-10-31T04:17:59.559Z,6.78
2017-10-31T04:20:26.996Z,8.00
2017-10-31T04:22:54.416Z,7.10
2017-10-31T04:25:21.845Z,7.82
2017-10-31T04:27:49.283Z,12.82
2017-10-31T04:30:16.695Z,8.23
2017-10-31T04:32:44.896Z,10.25
2017-10-31T04:35:12.321Z,8.65
2017-10-31T04:37:39.752Z,8.05
2017-10-31T04:40:07.167Z,8.63
2017-10-31T04:42:34.596Z,11.18
2017-10-31T04:45:02.778Z,7.12
2017-10-31T04:47:30.399Z,6.85
2017-10-31T04:49:57.825Z,6.80
2017-10-31T04:52:25.259Z,10.55
2017-10-31T04:54:52.714Z,12.15
2017-10-31T04:57:20.899Z,6.10
2017-10-31T04:59:48.300Z,8.60
2017-10-31T05:02:15.725Z,6.72
2017-10-31T05:04:43.185Z,8.45
2017-10-31T05:07:10.613Z,6.12
2017-10-31T05:09:38.040Z,7.35
2017-10-31T05:12:05.452Z,7.50
2017-10-31T05:14:32.873Z,8.77
2017-10-31T05:17:00.289Z,8.95
2017-10-31T05:19:27.725Z,8.23
2017-10-31T05:21:55.136Z,8.00
2017-10-31T05:24:22.559Z,6.70
2017-10-31T05:26:49.976Z,6.70
2017-10-31T05:29:17.404Z,6.50
2017-10-31T05:31:45.584Z,5.62
2017-10-31T05:34:13.028Z,8.13
2017-10-31T05:36:40.438Z,8.30
2017-10-31T05:39:07.852Z,6.70
2017-10-31T05:41:35.275Z,8.98
2017-10-31T05:44:02.696Z,5.00
2017-10-31T05:46:30.192Z,9.60
2017-10-31T05:48:57.604Z,6.80
2017-10-31T05:51:25.028Z,6.70
2017-10-31T05:53:52.445Z,8.15
2017-10-31T05:56:19.884Z,7.80
2017-10-31T05:58:48.186Z,6.97
2017-10-31T06:01:15.608Z,15.02
2017-10-31T06:03:43.027Z,12.45
2017-10-31T06:06:10.460Z,11.43
2017-10-31T06:08:37.905Z,8.35
2017-10-31T06:11:05.364Z,6.22
2017-10-31T06:13:32.776Z,6.70
2017-10-31T06:16:00.202Z,11.40
2017-10-31T06:18:31.033Z,8.00
2017-10-31T06:20:58.450Z,7.75
2017-10-31T06:23:31.480Z,8.05
2017-10-31T06:39:21.395Z,6.72
2017-10-31T06:41:48.821Z,9.95
2017-10-31T06:44:16.245Z,8.68
2017-10-31T06:46:43.657Z,8.52
2017-10-31T06:49:11.084Z,6.97
2017-10-31T06:51:38.508Z,12.23
2017-10-31T06:54:05.936Z,10.10
2017-10-31T06:56:33.470Z,6.78
2017-10-31T06:59:00.918Z,7.15
2017-10-31T07:01:28.346Z,12.27
2017-10-31T07:03:55.765Z,7.65
2017-10-31T07:06:23.191Z,9.20
2017-10-31T07:08:50.603Z,7.25
2017-10-31T07:11:18.821Z,8.32
2017-10-31T07:13:46.264Z,9.23
2017-10-31T07:16:13.691Z,9.70
2017-10-31T07:18:41.109Z,7.60
2017-10-31T07:21:08.537Z,11.07
2017-10-31T07:23:35.961Z,14.15
2017-10-31T07:26:04.165Z,7.15
2017-10-31T07:28:31.625Z,7.28
2017-10-31T07:30:59.089Z,11.20
2017-10-31T07:33:26.826Z,7.40
2017-10-31T07:35:54.256Z,7.32
2017-10-31T07:38:21.709Z,10.52
2017-10-31T07:40:49.128Z,12.13
2017-10-31T07:43:16.564Z,10.75
2017-10-31T07:45:44.011Z,11.35
2017-10-31T07:48:11.534Z,12.57
2017-10-31T07:50:38.954Z,9.95
2017-10-31T07:53:06.393Z,11.15
2017-10-31T07:55:33.823Z,7.97
2017-10-31T07:58:02.234Z,11.30
2017-10-31T08:00:29.639Z,9.20
2017-10-31T08:02:57.858Z,12.05
2017-10-31T08:05:25.284Z,12.35
2017-10-31T08:07:52.725Z,10.48
2017-10-31T08:10:20.141Z,13.48
2017-10-31T08:12:47.584Z,10.20
2017-10-31T08:15:15.000Z,10.75
2017-10-31T08:17:43.199Z,10.13
2017-10-31T08:20:10.612Z,9.27
2017-10-31T08:22:38.057Z,11.75
2017-10-31T08:25:05.481Z,12.35
2017-10-31T08:27:32.912Z,9.18
2017-10-31T08:30:00.346Z,8.95
2017-10-31T08:32:28.562Z,8.57
2017-10-31T08:34:55.979Z,9.15
2017-10-31T08:37:23.405Z,10.02
2017-10-31T08:39:51.618Z,15.32
2017-10-31T08:42:19.311Z,8.50
2017-10-31T08:44:46.759Z,10.00
2017-10-31T08:47:14.184Z,12.20
2017-10-31T08:49:41.624Z,14.30
2017-10-31T08:52:09.052Z,18.58
2017-10-31T08:54:36.500Z,14.23
2017-10-31T08:57:03.928Z,17.00
2017-10-31T08:59:31.368Z,13.07
2017-10-31T09:01:58.792Z,15.88
2017-10-31T09:04:26.232Z,15.35
2017-10-31T09:06:53.780Z,16.12
2017-10-31T09:09:21.232Z,9.30
2017-10-31T09:11:48.792Z,13.15
2017-10-31T09:14:16.259Z,18.17
2017-10-31T09:16:43.709Z,16.20
2017-10-31T09:19:11.151Z,13.00
2017-10-31T09:21:38.925Z,14.47
2017-10-31T09:24:06.352Z,10.70
2017-10-31T09:26:33.792Z,7.83
2017-10-31T09:29:01.222Z,10.07
2017-10-31T09:31:28.652Z,11.83
2017-10-31T09:33:56.084Z,15.60
2017-10-31T09:36:23.515Z,9.93
2017-10-31T09:38:51.699Z,9.70
2017-10-31T09:41:19.135Z,9.50
2017-10-31T09:43:46.553Z,12.70
2017-10-31T09:46:14.027Z,11.40
2017-10-31T09:48:41.446Z,8.00
2017-10-31T09:51:08.910Z,11.93
2017-10-31T09:53:36.341Z,16.50
2017-10-31T09:56:03.788Z,10.20
2017-10-31T09:58:31.227Z,13.10
2017-10-31T10:00:59.420Z,14.00
2017-10-31T10:03:26.870Z,12.33
2017-10-31T10:05:54.291Z,14.73
2017-10-31T10:08:21.724Z,11.03
2017-10-31T10:10:49.163Z,16.87
2017-10-31T10:13:16.595Z,7.80
2017-10-31T10:15:44.029Z,10.17
2017-10-31T10:18:11.596Z,11.73
2017-10-31T10:20:39.121Z,13.90
2017-10-31T10:23:06.572Z,9.30
2017-10-31T10:25:33.995Z,13.57
2017-10-31T10:28:01.449Z,10.77
2017-10-31T10:30:28.877Z,18.57
2017-10-31T10:32:56.316Z,13.53
2017-10-31T10:35:23.756Z,14.83
2017-10-31T10:37:51.185Z,11.93
2017-10-31T10:40:18.627Z,9.53
2017-10-31T10:42:46.049Z,9.67
2017-10-31T10:45:14.257Z,13.43
2017-10-31T10:47:41.696Z,14.90
2017-10-31T10:50:09.123Z,13.00
2017-10-31T10:52:36.566Z,13.03
2017-10-31T10:55:04.001Z,20.27
2017-10-31T10:57:31.436Z,14.77
2017-10-31T10:59:58.880Z,10.10
2017-10-31T11:02:26.323Z,12.90
2017-10-31T11:04:53.723Z,17.10
2017-10-31T11:07:21.165Z,10.57
2017-10-31T11:09:48.589Z,15.10
2017-10-31T11:12:16.020Z,13.20
2017-10-31T11:14:43.452Z,13.27
2017-10-31T11:17:10.893Z,12.20
2017-10-31T11:19:38.310Z,10.33
2017-10-31T11:22:05.735Z,12.90
2017-10-31T11:24:33.168Z,10.50
2017-10-31T11:27:00.589Z,8.23
2017-10-31T11:29:28.828Z,11.30
2017-10-31T11:31:57.771Z,8.73
2017-10-31T11:34:25.200Z,14.83
2017-10-31T11:36:52.615Z,13.33
2017-10-31T11:39:20.065Z,15.30
2017-10-31T11:41:47.609Z,13.13
2017-10-31T11:44:15.037Z,7.83
2017-10-31T11:46:42.448Z,9.20
2017-10-31T11:49:09.990Z,13.73
2017-10-31T11:51:37.412Z,7.83
2017-10-31T11:54:04.836Z,7.80
2017-10-31T11:56:32.256Z,9.27
2017-10-31T11:58:59.680Z,12.33
2017-10-31T12:01:27.136Z,9.27
2017-10-31T12:03:54.605Z,8.83
2017-10-31T12:06:22.024Z,6.10
2017-10-31T12:08:50.212Z,8.80
2017-10-31T12:11:17.640Z,7.13
2017-10-31T12:13:45.811Z,12.00
2017-10-31T12:16:14.740Z,6.57
2017-10-31T12:18:42.152Z,7.20
2017-10-31T12:21:09.601Z,7.13
2017-10-31T12:23:37.017Z,7.60
2017-10-31T12:26:04.449Z,4.87
2017-10-31T12:28:32.688Z,6.50
2017-10-31T12:31:00.113Z,8.87
2017-10-31T12:33:27.523Z,11.43
2017-10-31T12:35:54.952Z,8.07
2017-10-31T12:38:22.375Z,5.57
2017-10-31T12:40:50.178Z,6.50
2017-10-31T12:43:17.579Z,9.00
2017-10-31T12:45:44.989Z,6.10
2017-10-31T12:48:12.419Z,8.87
2017-10-31T12:50:39.858Z,6.80
2017-10-31T12:53:07.269Z,10.23
2017-10-31T12:55:34.679Z,7.00
2017-10-31T12:58:02.113Z,8.27
2017-10-31T13:00:29.595Z,8.77
2017-10-31T13:02:57.016Z,7.47
2017-10-31T13:05:24.439Z,4.90
2017-10-31T13:07:51.859Z,5.90
2017-10-31T13:10:19.277Z,5.10
2017-10-31T13:12:47.463Z,6.67
2017-10-31T13:15:14.885Z,4.83
2017-10-31T13:17:42.320Z,8.30
2017-10-31T13:20:09.739Z,6.00
2017-10-31T13:22:37.155Z,5.03
2017-10-31T13:25:04.580Z,4.20
2017-10-31T13:27:33.203Z,6.90
2017-10-31T13:30:01.700Z,4.47
2017-10-31T13:32:30.103Z,6.27
2017-10-31T13:34:58.453Z,7.13
2017-10-31T13:37:27.812Z,5.37
2017-10-31T13:39:56.136Z,4.83
2017-10-31T13:42:24.516Z,4.80
2017-10-31T13:44:51.943Z,4.77
2017-10-31T13:47:19.445Z,4.13
2017-10-31T13:49:47.006Z,7.60
2017-10-31T13:52:15.303Z,9.53
2017-10-31T13:54:42.737Z,5.37
2017-10-31T13:57:10.152Z,5.83
2017-10-31T13:59:38.337Z,7.47
2017-10-31T14:02:06.357Z,3.93
2017-10-31T14:04:34.544Z,6.50
2017-10-31T14:07:03.184Z,7.90
2017-10-31T14:09:31.916Z,5.10
2017-10-31T14:12:00.425Z,5.33
2017-10-31T14:14:28.613Z,4.60
2017-10-31T14:16:56.904Z,4.13
2017-10-31T14:19:24.939Z,5.60
2017-10-31T14:21:54.201Z,4.13
2017-10-31T14:24:21.600Z,5.03
2017-10-31T14:26:49.028Z,8.57
2017-10-31T14:29:16.761Z,7.70
2017-10-31T14:31:44.188Z,5.27
2017-10-31T14:34:11.612Z,4.70
2017-10-31T14:36:39.034Z,4.60
2017-10-31T14:39:06.447Z,5.97
2017-10-31T14:41:34.649Z,4.87
2017-10-31T14:44:02.073Z,5.43
2017-10-31T14:46:29.491Z,4.40
2017-10-31T14:48:56.912Z,4.77
2017-10-31T14:51:24.323Z,3.23
2017-10-31T14:53:51.743Z,6.67
2017-10-31T14:56:19.160Z,4.57
2017-10-31T14:58:46.584Z,8.00
2017-10-31T15:01:14.000Z,4.07
2017-10-31T15:03:41.436Z,4.40
2017-10-31T15:06:08.848Z,3.27
2017-10-31T15:08:36.276Z,2.40
2017-10-31T15:11:03.692Z,4.87
2017-10-31T15:13:31.169Z,4.30
2017-10-31T15:15:58.581Z,5.07
2017-10-31T15:18:26.004Z,11.20
2017-10-31T15:20:53.423Z,5.73
2017-10-31T15:23:20.872Z,12.33
2017-10-31T15:25:48.283Z,4.93
2017-10-31T15:28:15.700Z,7.37
2017-10-31T15:30:43.132Z,7.07
2017-10-31T15:33:10.544Z,3.63
2017-10-31T15:35:37.970Z,5.30
2017-10-31T15:38:05.385Z,3.83
2017-10-31T15:40:33.582Z,5.50
2017-10-31T15:43:01.001Z,4.00
2017-10-31T15:45:28.436Z,4.23
2017-10-31T15:47:55.839Z,6.20
2017-10-31T15:50:23.274Z,4.10
2017-10-31T15:52:50.683Z,7.23
2017-10-31T15:55:18.107Z,3.80
2017-10-31T15:57:45.544Z,6.00
2017-10-31T16:00:13.988Z,7.83
2017-10-31T16:02:41.480Z,7.80
2017-10-31T16:05:08.996Z,5.47
2017-10-31T16:07:36.580Z,9.10
2017-10-31T16:10:04.254Z,6.03
2017-10-31T16:12:31.777Z,6.77
2017-10-31T16:14:59.172Z,6.27
2017-10-31T16:17:26.607Z,6.43
2017-10-31T16:19:54.028Z,9.40
2017-10-31T16:22:21.489Z,9.50
2017-10-31T16:24:48.925Z,15.00
2017-10-31T16:27:17.211Z,10.90
2017-10-31T16:29:44.813Z,10.90
2017-10-31T16:32:12.304Z,16.93
2017-10-31T16:34:39.776Z,10.10
2017-10-31T16:37:07.240Z,12.40
2017-10-31T16:39:34.653Z,14.67
2017-10-31T16:42:02.080Z,11.30
2017-10-31T16:44:29.838Z,13.00
2017-10-31T16:46:57.380Z,12.20
2017-10-31T16:49:24.828Z,13.67
2017-10-31T16:51:52.251Z,12.27
2017-10-31T16:54:19.680Z,11.63
2017-10-31T16:56:47.117Z,7.67
2017-10-31T16:59:14.539Z,16.13
2017-10-31T17:01:42.033Z,9.67
2017-10-31T17:04:09.448Z,10.20
2017-10-31T17:06:36.871Z,8.10
2017-10-31T17:09:05.077Z,9.37
2017-10-31T17:11:32.515Z,7.50
2017-10-31T17:13:59.949Z,10.47
2017-10-31T17:16:27.375Z,8.47
2017-10-31T17:18:54.812Z,6.70
2017-10-31T17:21:22.249Z,8.60
2017-10-31T17:23:49.684Z,10.53
2017-10-31T17:26:17.871Z,10.67
2017-10-31T17:28:45.293Z,11.07
2017-10-31T17:31:12.728Z,14.10
2017-10-31T17:33:40.301Z,10.63
2017-10-31T17:36:07.740Z,14.13
2017-10-31T17:38:35.258Z,11.73
2017-10-31T17:41:02.674Z,17.13
2017-10-31T17:43:30.104Z,13.00
2017-10-31T17:45:57.561Z,9.53
2017-10-31T17:48:25.001Z,14.30
2017-10-31T17:50:52.436Z,11.90
2017-10-31T17:53:19.865Z,14.50
2017-10-31T17:55:47.305Z,16.40
2017-10-31T17:58:14.724Z,21.40
2017-10-31T18:00:42.167Z,20.40
2017-10-31T18:03:09.600Z,16.40
2017-10-31T18:05:37.024Z,12.63
2017-10-31T18:08:04.459Z,12.80
2017-10-31T18:10:31.884Z,13.87
2017-10-31T18:12:59.891Z,16.97
2017-10-31T18:15:27.294Z,12.67
2017-10-31T18:17:54.728Z,10.37
2017-10-31T18:20:22.156Z,12.83
2017-10-31T18:22:49.591Z,15.10
2017-10-31T18:25:17.016Z,10.67
2017-10-31T18:27:45.216Z,13.40
2017-10-31T18:30:12.639Z,20.97
2017-10-31T18:32:40.085Z,24.30
2017-10-31T18:35:07.524Z,18.63
2017-10-31T18:37:34.966Z,11.17
2017-10-31T18:40:02.395Z,12.80
2017-10-31T18:42:29.829Z,19.57
2017-10-31T18:44:58.025Z,12.70
2017-10-31T18:47:25.452Z,13.60
2017-10-31T18:49:52.959Z,17.53
2017-10-31T18:52:20.384Z,16.37
2017-10-31T18:54:47.832Z,14.20
2017-10-31T18:57:15.284Z,13.80
2017-10-31T18:59:42.728Z,13.27
2017-10-31T19:02:10.161Z,16.97
2017-10-31T19:04:37.600Z,11.00
2017-10-31T19:07:05.035Z,15.47
2017-10-31T19:09:32.477Z,13.37
2017-10-31T19:12:00.657Z,14.53
2017-10-31T19:14:28.076Z,9.70
2017-10-31T19:16:55.512Z,10.17
2017-10-31T19:19:22.951Z,12.90
2017-10-31T19:21:50.373Z,12.97
2017-10-31T19:24:17.800Z,9.43
2017-10-31T19:26:45.219Z,13.60
2017-10-31T19:29:12.661Z,12.50
2017-10-31T19:31:40.116Z,11.57
2017-10-31T19:34:07.557Z,13.00
2017-10-31T19:36:34.983Z,12.77
2017-10-31T19:39:02.428Z,12.23
2017-10-31T19:41:29.861Z,13.17
2017-10-31T19:43:57.307Z,15.07
2017-10-31T19:46:24.741Z,11.20
2017-10-31T19:48:52.161Z,15.57
2017-10-31T19:51:20.353Z,14.70
2017-10-31T19:53:47.945Z,14.20
2017-10-31T19:56:15.360Z,9.83
2017-10-31T19:58:43.556Z,9.33
2017-10-31T20:01:10.993Z,12.90
2017-10-31T20:03:38.426Z,16.43
2017-10-31T20:06:05.856Z,11.70
2017-10-31T20:08:33.281Z,13.17
2017-10-31T20:11:00.725Z,13.20
2017-10-31T20:13:28.160Z,11.37
2017-10-31T20:15:56.365Z,13.80
2017-10-31T20:18:23.806Z,13.80
2017-10-31T20:20:51.245Z,11.63
2017-10-31T20:23:18.709Z,19.20
2017-10-31T20:25:46.156Z,16.40
2017-10-31T20:28:13.581Z,12.87
2017-10-31T20:30:41.030Z,16.30
2017-10-31T20:33:08.455Z,18.70
2017-10-31T20:35:35.888Z,14.93
2017-10-31T20:38:04.097Z,20.03
2017-10-31T20:40:31.525Z,17.40
2017-10-31T20:42:58.964Z,16.17
2017-10-31T20:45:26.393Z,13.90
2017-10-31T20:47:53.840Z,11.80
2017-10-31T20:50:21.264Z,12.63
2017-10-31T20:52:49.476Z,13.23
2017-10-31T20:55:16.905Z,15.13
2017-10-31T20:57:44.344Z,13.17
2017-10-31T21:00:11.780Z,12.23
2017-10-31T21:02:39.986Z,15.90
2017-10-31T21:05:07.396Z,13.63
2017-10-31T21:07:34.833Z,13.00
2017-10-31T21:10:02.258Z,15.60
2017-10-31T21:12:29.713Z,13.30
2017-10-31T21:14:57.189Z,12.03
2017-10-31T21:17:24.623Z,16.57
2017-10-31T21:19:52.071Z,12.10
2017-10-31T21:22:19.512Z,14.47
2017-10-31T21:24:46.950Z,14.27
2017-10-31T21:27:14.390Z,15.90
2017-10-31T21:29:41.811Z,12.10
2017-10-31T21:32:09.239Z,15.20
2017-10-31T21:34:36.685Z,11.73
2017-10-31T21:37:04.894Z,18.23
2017-10-31T21:39:32.324Z,15.00
2017-10-31T21:41:59.763Z,16.73
2017-10-31T21:44:27.208Z,14.13
2017-10-31T21:46:54.623Z,15.30
2017-10-31T21:49:22.102Z,14.03
2017-10-31T21:51:49.508Z,10.93
2017-10-31T21:54:16.950Z,10.93
2017-10-31T21:56:45.184Z,11.03
2017-10-31T21:59:12.655Z,15.10
2017-10-31T22:01:40.271Z,11.50
2017-10-31T22:04:07.748Z,12.73
2017-10-31T22:06:35.188Z,11.63
2017-10-31T22:09:02.620Z,10.20
2017-10-31T22:11:30.059Z,13.60
2017-10-31T22:13:58.269Z,11.63
2017-10-31T22:16:25.718Z,12.13
2017-10-31T22:18:53.148Z,14.00
2017-10-31T22:21:20.577Z,13.60
2017-10-31T22:23:48.029Z,14.40
2017-10-31T22:26:15.491Z,12.40
2017-10-31T22:28:42.925Z,14.23
2017-10-31T22:31:10.372Z,13.23
2017-10-31T22:33:37.794Z,16.20
2017-10-31T22:36:05.980Z,12.83
2017-10-31T22:38:33.421Z,13.90
2017-10-31T22:41:00.852Z,12.00
2017-10-31T22:43:28.284Z,12.23
2017-10-31T22:45:55.717Z,15.03
2017-10-31T22:48:23.156Z,15.27
2017-10-31T22:50:50.572Z,17.13
2017-10-31T22:53:18.014Z,12.73
2017-10-31T22:55:45.439Z,18.17
2017-10-31T22:58:12.881Z,11.97
2017-10-31T23:00:40.308Z,9.40
2017-10-31T23:03:07.749Z,22.17
2017-10-31T23:05:35.167Z,11.00
2017-10-31T23:08:02.883Z,11.93
2017-10-31T23:10:30.312Z,13.53
2017-10-31T23:12:58.178Z,10.63
2017-10-31T23:15:25.603Z,10.90
2017-10-31T23:17:53.041Z,10.60
2017-10-31T23:20:20.484Z,13.83
2017-10-31T23:22:47.912Z,10.87
2017-10-31T23:25:15.352Z,15.20
2017-10-31T23:27:42.779Z,16.33
2017-10-31T23:30:10.222Z,16.93
2017-10-31T23:32:37.643Z,12.20
2017-10-31T23:35:05.853Z,11.13
2017-10-31T23:37:33.287Z,14.13
2017-10-31T23:40:00.723Z,17.17
2017-10-31T23:42:28.153Z,13.10
2017-10-31T23:44:55.598Z,12.70
2017-10-31T23:47:23.024Z,17.63
2017-10-31T23:49:50.447Z,10.00
2017-10-31T23:52:17.881Z,12.30
2017-10-31T23:54:45.414Z,12.53
2017-10-31T23:57:12.856Z,14.18
2017-10-31T23:59:40.311Z,16.20
